Terminal Aerodrome Forecast
Issued by NWS New Orleans/Baton Rouge, LA

Home | Current Version | Previous Version | Text Only | Print | Product List | Glossary On
Versions: 1 2 3 4 5 6 7 8 9 10 11 12 13 14 15 16 17
000
FTUS44 KLIX 282331
TAFNEW
TAF
KNEW 282331Z 2900/2924 16016G24KT P6SM SCT023 BKN030
     FM290300 15015KT P6SM BKN015
     FM291000 14013G23KT P6SM BKN015
     FM291400 15017G26KT P6SM BKN020=

USA.gov is the U.S. government's official web portal to all federal, state and local government web resources and services.